Flight Track Log - Related Links

Times and Time Zones

All times are in EDT time to prevent confusion due to time zone crossing. See the CSN6864 flight status page for this flight to view local times or setup timezone preferences in your user account.

Time Position Orientation Groundspeed Altitude Reporting Facility
EDT Latitude Longitude Course Direction KTS MPH feet Rate Location/Type
Sun 02:05:00 AM 41.3358 80.4683 61° Northeast  Level Estimated
Sun 02:06:00 AM 41.4088 80.6454 61° Northeast  Level Estimated
Sun 02:07:00 AM 41.4816 80.8229 61° Northeast  Level Estimated
Sun 02:08:00 AM 41.5541 81.0007 61° Northeast  Level Estimated
Sun 02:09:00 AM 41.6263 81.1790 61° Northeast  Level Estimated
Sun 02:10:00 AM 41.6982 81.3576 62° Northeast  Level Estimated
Sun 02:11:00 AM 41.7699 81.5367 62° Northeast  Level Estimated
Sun 02:12:00 AM 41.8413 81.7161 62° Northeast  Level Estimated
Sun 02:13:00 AM 41.9123 81.8960 62° Northeast  Level Estimated
Sun 02:14:00 AM 41.9832 82.0763 62° Northeast  Level Estimated
Sun 02:15:00 AM 42.0537 82.2569 62° Northeast  Level Estimated
Sun 02:16:00 AM 42.1240 82.4380 62° Northeast  Level Estimated
Sun 02:17:00 AM 42.1939 82.6195 62° Northeast  Level Estimated
Sun 02:18:00 AM 42.2636 82.8013 63° Northeast  Level Estimated
Sun 02:19:00 AM 42.3330 82.9836 63° Northeast  Level Estimated
Sun 02:20:00 AM 42.4021 83.1662 63° Northeast  Level Estimated
Sun 02:21:00 AM 42.4709 83.3493 63° Northeast  Level Estimated
Sun 02:22:00 AM 42.5394 83.5328 63° Northeast  Level Estimated
Sun 02:23:00 AM 42.6077 83.7166 63° Northeast  Level Estimated
Sun 02:24:00 AM 42.6756 83.9009 63° Northeast  Level Estimated
Sun 02:25:00 AM 42.7432 84.0856 63° Northeast  Level Estimated
Sun 02:26:00 AM 42.8106 84.2707 64° Northeast  Level Estimated
Sun 02:27:00 AM 42.8776 84.4561 64° Northeast  Level Estimated
Sun 02:28:00 AM 42.9443 84.6420 64° Northeast  Level Estimated
Sun 02:29:00 AM 43.0108 84.8283 64° Northeast  Level Estimated
Sun 02:30:00 AM 43.0769 85.0150 64° Northeast  Level Estimated
Sun 02:31:00 AM 43.1427 85.2021 64° Northeast  Level Estimated
Sun 02:32:00 AM 43.2082 85.3896 64° Northeast  Level Estimated
Sun 02:33:00 AM 43.2735 85.5775 64° Northeast  Level Estimated
Sun 02:34:00 AM 43.3384 85.7658 65° Northeast  Level Estimated
Sun 02:35:00 AM 43.4030 85.9545 65° Northeast  Level Estimated
Sun 02:36:00 AM 43.4673 86.1436 65° Northeast  Level Estimated
Sun 02:37:00 AM 43.5312 86.3331 65° Northeast  Level Estimated
Sun 02:38:00 AM 43.5949 86.5230 65° Northeast  Level Estimated
Sun 02:39:00 AM 43.6583 86.7133 65° Northeast  Level Estimated
Sun 02:40:00 AM 43.7213 86.9040 65° Northeast  Level Estimated
Sun 02:41:00 AM 43.7840 87.0951 66° East  Level Estimated
Sun 02:42:00 AM 43.8464 87.2866 66° East  Level Estimated
Sun 02:43:00 AM 43.9071 87.4742 66° East  Level Estimated
Sun 02:44:00 AM 43.9071 87.4742 144° Southeast  Level Estimated
Sun 02:45:00 AM 43.9071 87.4742 144° Southeast  Level Estimated
Sun 02:46:00 AM 43.9071 87.4742 144° Southeast  Level Estimated
Sun 02:47:00 AM 43.9071 87.4742 144° Southeast  Level Estimated
Sun 02:48:00 AM 43.9071 87.4742 144° Southeast  Level Estimated
Sun 02:49:00 AM 43.9071 87.4742 144° Southeast  Level Estimated
Sun 02:50:00 AM 43.9071 87.4742 144° Southeast  Level Estimated
Sun 02:51:00 AM 43.9071 87.4742 144° Southeast  Level Estimated
Sun 02:52:00 AM 43.9071 87.4742 144° Southeast  Level Estimated
Sun 02:53:00 AM 43.9071 87.4742 144° Southeast  Level Estimated
Sun 02:54:00 AM 43.9071 87.4742 144° Southeast  Level Estimated
Sun 02:55:00 AM 43.9071 87.4742 144° Southeast  Level Estimated
Sun 02:56:00 AM 43.9071 87.4742 144° Southeast  Level Estimated
Sun 02:57:00 AM 43.9071 87.4742 144° Southeast  Level Estimated
Sun 02:58:00 AM 43.9071 87.4742 144° Southeast  Level Estimated
Sun 02:59:00 AM 43.9071 87.4742 144° Southeast  Level Estimated

Login

Don't have an account? Register now (free) for customized features, flight alerts, and more!